Time;durP1;ratioP1;P1;durP2;ratioP2;P2;SDS_P1;SDS_P2;PMS_P1;PMS_P2;Temp;Humidity;BMP_temperature;BMP_pressure;BME280_temperature;BME280_humidity;BME280_pressure;Samples;Min_cycle;Max_cycle;Signal;HPM_P1;HPM_P2
2022/08/07 00:01:05;;;;;;;8.50;6.13;;;15.40;70.60;;;;;;5058154;28;20341;-74
2022/08/07 00:03:32;;;;;;;10.77;6.13;;;15.50;70.60;;;;;;5063603;28;20032;-75
2022/08/07 00:05:58;;;;;;;9.38;6.18;;;15.40;70.60;;;;;;5061627;28;20110;-74
2022/08/07 00:08:24;;;;;;;8.73;5.60;;;15.40;70.60;;;;;;5060996;28;20120;-75
2022/08/07 00:10:50;;;;;;;11.38;6.05;;;15.40;70.70;;;;;;5063442;28;20483;-76
2022/08/07 00:13:18;;;;;;;9.00;5.90;;;15.40;70.80;;;;;;5057730;28;20097;-74
2022/08/07 00:15:44;;;;;;;11.43;6.25;;;15.40;70.90;;;;;;5063573;28;20059;-74
2022/08/07 00:18:10;;;;;;;10.25;6.30;;;15.40;71.00;;;;;;5063232;28;20480;-74
2022/08/07 00:20:37;;;;;;;7.68;5.38;;;15.40;70.90;;;;;;5066753;28;20031;-74
2022/08/07 00:23:07;;;;;;;13.20;5.72;;;15.40;70.80;;;;;;5063133;28;20028;-75
2022/08/07 00:25:33;;;;;;;9.05;5.70;;;15.40;70.70;;;;;;5063460;28;20032;-75
2022/08/07 00:27:59;;;;;;;9.15;5.85;;;15.40;70.80;;;;;;5060657;28;20101;-74
2022/08/07 00:30:25;;;;;;;9.15;5.90;;;15.30;70.70;;;;;;5063107;28;20476;-75
2022/08/07 00:32:51;;;;;;;10.93;6.10;;;15.30;70.90;;;;;;5062600;28;20040;-74
2022/08/07 00:35:17;;;;;;;9.50;6.15;;;15.30;71.10;;;;;;5064139;28;20029;-74
2022/08/07 00:37:43;;;;;;;9.07;5.90;;;15.20;71.10;;;;;;5062735;28;20032;-74
2022/08/07 00:40:10;;;;;;;7.70;6.13;;;15.20;71.10;;;;;;5061326;28;20042;-74
2022/08/07 00:42:36;;;;;;;10.27;5.78;;;15.20;71.10;;;;;;5061648;28;20048;-75
2022/08/07 00:45:03;;;;;;;9.52;6.10;;;15.10;71.10;;;;;;5063476;28;20087;-75
2022/08/07 00:47:29;;;;;;;11.18;5.93;;;15.10;71.10;;;;;;5061974;28;20531;-75
2022/08/07 00:49:55;;;;;;;8.07;5.47;;;15.10;71.30;;;;;;5063467;28;20156;-74
2022/08/07 00:52:20;;;;;;;8.95;6.03;;;15.10;71.50;;;;;;5054258;28;20103;-76
2022/08/07 00:54:47;;;;;;;7.78;5.80;;;15.10;71.60;;;;;;5062029;28;20040;-73
2022/08/07 00:57:14;;;;;;;10.77;6.88;;;15.10;71.60;;;;;;5066155;28;20067;-75
2022/08/07 00:59:40;;;;;;;10.52;6.35;;;15.10;71.60;;;;;;5061941;28;20045;-75
2022/08/07 01:02:07;;;;;;;10.35;6.80;;;15.00;71.70;;;;;;5061763;28;20050;-75
2022/08/07 01:04:33;;;;;;;9.00;5.90;;;15.00;71.70;;;;;;5060078;28;20033;-77
2022/08/07 01:06:59;;;;;;;10.95;6.15;;;14.80;71.70;;;;;;5060838;28;20082;-76
2022/08/07 01:09:25;;;;;;;9.93;5.97;;;14.80;72.00;;;;;;5064207;28;20033;-76
2022/08/07 01:11:51;;;;;;;9.45;6.25;;;14.80;72.30;;;;;;5062328;28;20048;-74
2022/08/07 01:14:21;;;;;;;8.20;6.18;;;14.70;72.10;;;;;;5062376;28;20356;-74
2022/08/07 01:16:47;;;;;;;9.25;6.35;;;14.70;72.20;;;;;;5056741;28;20123;-77
2022/08/07 01:19:14;;;;;;;9.10;5.93;;;14.60;72.50;;;;;;5063371;28;20033;-74
2022/08/07 01:21:40;;;;;;;8.05;6.07;;;14.60;72.60;;;;;;5061890;28;20031;-75
2022/08/07 01:24:07;;;;;;;9.18;6.20;;;14.50;72.80;;;;;;5063866;28;20399;-74
2022/08/07 01:26:34;;;;;;;9.18;6.20;;;14.50;72.80;;;;;;5059583;28;20036;-74
2022/08/07 01:29:00;;;;;;;9.27;7.15;;;14.50;73.00;;;;;;5067304;28;20090;-74
2022/08/07 01:31:32;;;;;;;8.35;5.70;;;14.40;73.20;;;;;;5061489;28;20048;-76
2022/08/07 01:33:59;;;;;;;11.95;7.22;;;14.30;73.40;;;;;;5061794;28;20360;-74
2022/08/07 01:36:27;;;;;;;9.93;7.15;;;14.30;73.40;;;;;;5059563;28;20039;-75
2022/08/07 01:38:54;;;;;;;10.07;7.53;;;14.20;73.80;;;;;;5060719;28;20045;-74
2022/08/07 01:41:21;;;;;;;11.38;7.28;;;14.20;74.20;;;;;;5065235;28;20044;-74
2022/08/07 01:43:48;;;;;;;11.85;8.10;;;14.20;74.50;;;;;;5061766;28;20442;-74
2022/08/07 01:46:15;;;;;;;10.10;7.32;;;14.20;74.70;;;;;;5062125;28;20119;-74
2022/08/07 01:48:42;;;;;;;8.73;7.10;;;14.10;75.00;;;;;;5059893;28;20028;-75
2022/08/07 01:51:11;;;;;;;11.48;8.60;;;14.10;75.10;;;;;;5061365;28;20036;-74
2022/08/07 01:53:41;;;;;;;10.82;8.57;;;14.10;75.40;;;;;;5062921;28;20032;-74
2022/08/07 01:56:22;;;;;;;10.45;8.75;;;14.10;75.60;;;;;;5061870;28;20395;-76
2022/08/07 01:58:58;;;;;;;10.35;8.43;;;14.00;75.70;;;;;;5066528;28;20040;-74
2022/08/07 02:01:30;;;;;;;11.00;8.52;;;13.90;76.00;;;;;;5065595;28;20073;-75
2022/08/07 02:04:01;;;;;;;12.52;9.55;;;14.00;76.10;;;;;;5066495;28;20029;-76
2022/08/07 02:06:31;;;;;;;12.55;9.73;;;13.90;76.20;;;;;;5065625;28;20059;-74
2022/08/07 02:09:00;;;;;;;12.70;10.05;;;13.80;76.20;;;;;;5064519;28;20037;-74
2022/08/07 02:11:26;;;;;;;11.60;9.93;;;13.90;76.40;;;;;;5048037;28;20102;-77
2022/08/07 02:13:54;;;;;;;12.50;10.02;;;13.80;76.40;;;;;;5062007;28;20400;-74
2022/08/07 02:16:21;;;;;;;13.57;10.23;;;13.90;76.70;;;;;;5065155;28;20047;-75
2022/08/07 02:18:49;;;;;;;11.70;10.25;;;13.80;76.60;;;;;;5066922;28;20047;-74
2022/08/07 02:21:15;;;;;;;12.32;10.05;;;13.80;76.60;;;;;;5057038;28;20102;-74
2022/08/07 02:23:42;;;;;;;12.68;10.98;;;13.80;76.60;;;;;;5061540;28;20403;-76
2022/08/07 02:26:09;;;;;;;15.10;11.45;;;13.80;76.70;;;;;;5063129;28;20028;-75
2022/08/07 02:28:36;;;;;;;13.80;12.00;;;13.80;76.80;;;;;;5073711;28;20168;-74
2022/08/07 02:31:05;;;;;;;14.32;12.73;;;13.80;76.90;;;;;;5072234;28;20591;-74
2022/08/07 02:33:32;;;;;;;14.90;12.38;;;13.70;77.00;;;;;;5056924;28;20033;-74
2022/08/07 02:35:59;;;;;;;14.93;13.10;;;13.70;77.10;;;;;;5070613;28;20105;-74
2022/08/07 02:38:31;;;;;;;14.18;12.77;;;13.80;76.90;;;;;;5070493;28;20044;-74
2022/08/07 02:40:58;;;;;;;15.80;13.45;;;13.80;77.10;;;;;;5072861;28;20036;-74
2022/08/07 02:43:25;;;;;;;17.23;14.35;;;13.80;77.40;;;;;;5063875;28;20036;-76
2022/08/07 02:45:53;;;;;;;15.60;13.88;;;13.70;77.40;;;;;;5063797;28;20388;-74
2022/08/07 02:48:19;;;;;;;15.82;13.95;;;13.70;77.40;;;;;;5064861;28;20457;-74
2022/08/07 02:50:49;;;;;;;16.17;14.07;;;13.70;77.30;;;;;;5068178;28;20039;-75
2022/08/07 02:53:20;;;;;;;17.33;14.82;;;13.70;77.30;;;;;;5065122;28;20036;-75
2022/08/07 02:55:48;;;;;;;20.15;15.50;;;13.60;77.40;;;;;;5066254;28;20041;-74
2022/08/07 02:58:18;;;;;;;17.15;15.27;;;13.60;77.70;;;;;;5058020;28;20040;-74
2022/08/07 03:00:46;;;;;;;20.60;17.40;;;13.60;77.50;;;;;;5064587;28;20032;-74
2022/08/07 03:03:13;;;;;;;18.80;15.98;;;13.60;77.80;;;;;;5064109;28;20048;-75
2022/08/07 03:05:40;;;;;;;18.65;16.50;;;13.60;78.30;;;;;;5069230;28;20063;-74
2022/08/07 03:08:06;;;;;;;21.23;18.10;;;13.60;78.80;;;;;;5062446;28;20120;-75
2022/08/07 03:10:33;;;;;;;20.88;18.67;;;13.60;79.00;;;;;;5065032;28;20115;-74
2022/08/07 03:13:00;;;;;;;22.27;19.20;;;13.60;79.20;;;;;;5064922;28;20033;-76
2022/08/07 03:15:27;;;;;;;21.40;19.17;;;13.50;79.60;;;;;;5067688;28;20151;-77
2022/08/07 03:17:53;;;;;;;22.20;19.55;;;13.50;80.00;;;;;;5064483;28;20058;-74
2022/08/07 03:20:19;;;;;;;23.48;20.35;;;13.40;80.20;;;;;;5067456;28;20039;-74
2022/08/07 03:22:46;;;;;;;20.75;18.23;;;13.40;80.30;;;;;;5060095;28;20036;-76
2022/08/07 03:25:12;;;;;;;21.92;18.15;;;13.40;80.40;;;;;;5064412;28;20078;-74
2022/08/07 03:27:41;;;;;;;20.67;18.48;;;13.40;80.20;;;;;;5070000;28;20036;-76
2022/08/07 03:30:07;;;;;;;20.52;18.38;;;13.40;80.30;;;;;;5061433;28;20025;-75
2022/08/07 03:32:39;;;;;;;19.60;17.52;;;13.40;79.80;;;;;;5064464;28;20029;-74
2022/08/07 03:35:08;;;;;;;20.92;18.58;;;13.30;79.70;;;;;;5064905;28;20063;-74
2022/08/07 03:37:38;;;;;;;22.52;19.08;;;13.40;79.70;;;;;;5061790;28;20076;-75
2022/08/07 03:40:06;;;;;;;20.65;18.38;;;13.40;79.80;;;;;;5064160;28;20029;-74
2022/08/07 03:42:34;;;;;;;19.95;17.90;;;13.30;79.80;;;;;;5062321;28;20047;-73
2022/08/07 03:45:00;;;;;;;20.17;18.08;;;13.40;79.50;;;;;;5070924;28;20037;-74
2022/08/07 03:47:27;;;;;;;21.08;18.52;;;13.40;79.40;;;;;;5063570;28;20036;-75
2022/08/07 03:49:52;;;;;;;19.92;17.67;;;13.30;79.50;;;;;;5062367;28;20499;-74
2022/08/07 03:52:22;;;;;;;21.63;17.92;;;13.30;79.20;;;;;;5063910;28;20032;-74
2022/08/07 03:54:48;;;;;;;19.77;17.67;;;13.20;79.20;;;;;;5064752;28;20047;-75
2022/08/07 03:57:14;;;;;;;19.65;17.65;;;13.20;79.40;;;;;;5063085;28;20542;-74
2022/08/07 03:59:41;;;;;;;23.38;17.83;;;13.10;79.60;;;;;;5062850;28;20048;-75
2022/08/07 04:02:07;;;;;;;19.90;17.73;;;13.10;79.60;;;;;;5063070;28;20040;-74
2022/08/07 04:04:33;;;;;;;20.52;18.10;;;13.10;79.30;;;;;;5064227;28;20803;-74
2022/08/07 04:06:59;;;;;;;19.48;17.38;;;13.10;79.40;;;;;;5066410;28;20036;-75
2022/08/07 04:09:27;;;;;;;20.27;18.08;;;13.00;79.40;;;;;;5062071;28;20028;-75
2022/08/07 04:11:53;;;;;;;21.05;18.77;;;13.00;79.40;;;;;;5062263;28;20510;-74
2022/08/07 04:14:20;;;;;;;20.80;18.60;;;13.00;79.50;;;;;;5063360;28;20128;-74
2022/08/07 04:16:47;;;;;;;19.83;17.80;;;12.90;79.60;;;;;;5068159;28;20048;-74
2022/08/07 04:19:15;;;;;;;21.38;18.17;;;12.90;79.50;;;;;;5070275;28;20507;-74
2022/08/07 04:21:41;;;;;;;23.20;17.77;;;12.90;79.50;;;;;;5063854;28;20028;-74
2022/08/07 04:24:09;;;;;;;21.55;16.92;;;12.80;79.60;;;;;;5063683;28;20143;-75
2022/08/07 04:26:37;;;;;;;19.75;17.65;;;12.90;79.60;;;;;;5062867;28;20116;-75
2022/08/07 04:29:05;;;;;;;20.70;17.95;;;12.90;79.30;;;;;;5062725;28;20032;-75
2022/08/07 04:31:31;;;;;;;20.67;18.48;;;12.90;79.40;;;;;;5064267;28;20033;-74
2022/08/07 04:33:58;;;;;;;21.90;19.55;;;12.90;79.70;;;;;;5060090;28;20502;-74
2022/08/07 04:36:23;;;;;;;22.13;19.63;;;12.90;79.80;;;;;;5063308;28;20029;-74
2022/08/07 04:38:50;;;;;;;25.70;19.80;;;13.00;80.00;;;;;;5066741;28;20028;-76
2022/08/07 04:41:15;;;;;;;22.60;18.60;;;13.00;80.10;;;;;;5062698;28;20051;-76
2022/08/07 04:43:43;;;;;;;24.23;20.52;;;13.00;80.00;;;;;;5066810;28;20120;-76
2022/08/07 04:46:40;;;;;;;25.50;19.50;;;13.00;79.90;;;;;;5065015;28;20024;-74
2022/08/07 04:49:38;;;;;;;21.98;18.17;;;13.00;80.00;;;;;;5076057;28;20025;-74
2022/08/07 04:52:13;;;;;;;22.98;19.02;;;13.10;80.10;;;;;;5061337;28;20032;-74
2022/08/07 04:55:24;;;;;;;24.88;21.25;;;13.10;79.70;;;;;;5062752;28;20043;-74
2022/08/07 04:57:56;;;;;;;21.63;19.33;;;13.00;80.00;;;;;;4966189;28;20042;-74
2022/08/07 05:00:46;;;;;;;21.33;19.02;;;13.00;80.40;;;;;;4974927;28;20475;-75
2022/08/07 05:03:18;;;;;;;22.17;19.77;;;13.10;80.60;;;;;;5032489;28;20041;-74
2022/08/07 05:06:01;;;;;;;22.55;20.08;;;13.10;80.60;;;;;;5066977;28;20472;-73
2022/08/07 05:08:52;;;;;;;22.67;19.60;;;13.20;80.30;;;;;;5057870;28;20028;-74
2022/08/07 05:11:23;;;;;;;21.35;18.95;;;13.20;80.30;;;;;;5056962;28;20130;-74
2022/08/07 05:14:09;;;;;;;23.05;18.63;;;13.30;80.30;;;;;;5062933;28;20039;-75
2022/08/07 05:16:38;;;;;;;22.65;19.30;;;13.40;80.30;;;;;;5061610;28;20040;-75
2022/08/07 05:19:13;;;;;;;23.73;20.38;;;13.50;80.30;;;;;;5061808;28;20393;-75
2022/08/07 05:21:46;;;;;;;22.77;20.38;;;13.60;80.30;;;;;;5062431;28;20056;-75
2022/08/07 05:24:16;;;;;;;21.92;19.52;;;13.60;80.20;;;;;;5067895;28;20461;-75
2022/08/07 05:26:43;;;;;;;22.00;19.70;;;13.70;80.00;;;;;;5070825;28;20087;-75
2022/08/07 05:29:09;;;;;;;25.00;21.30;;;13.90;79.90;;;;;;5059826;28;20123;-75
2022/08/07 05:31:39;;;;;;;26.20;21.90;;;14.00;79.60;;;;;;5064194;28;20074;-75
2022/08/07 05:34:08;;;;;;;23.65;21.23;;;14.10;79.30;;;;;;5067937;28;20128;-74
2022/08/07 05:36:36;;;;;;;21.48;19.27;;;14.20;79.20;;;;;;5065382;28;20021;-74
2022/08/07 05:39:03;;;;;;;22.67;20.33;;;14.20;79.10;;;;;;5066142;28;20035;-74
2022/08/07 05:41:30;;;;;;;21.83;19.52;;;14.30;79.00;;;;;;5067081;28;20066;-76
2022/08/07 05:43:57;;;;;;;21.85;19.55;;;14.40;78.80;;;;;;5069797;28;20406;-74
2022/08/07 05:46:23;;;;;;;22.88;19.00;;;14.50;78.50;;;;;;5066624;28;20090;-76
2022/08/07 05:48:51;;;;;;;22.08;19.67;;;14.50;78.50;;;;;;5069958;28;20024;-74
2022/08/07 05:51:19;;;;;;;23.25;20.70;;;14.60;78.10;;;;;;5064475;28;20450;-74
2022/08/07 05:53:45;;;;;;;25.42;21.67;;;14.70;77.90;;;;;;5067382;28;20033;-74
2022/08/07 05:56:13;;;;;;;23.40;20.63;;;14.80;77.70;;;;;;5065836;28;20029;-77
2022/08/07 05:58:40;;;;;;;23.02;20.73;;;14.80;77.70;;;;;;5066224;28;20609;-74
2022/08/07 06:01:07;;;;;;;25.77;20.48;;;15.00;77.50;;;;;;5063765;28;20079;-75
2022/08/07 06:03:34;;;;;;;20.60;18.50;;;15.40;76.50;;;;;;5066825;28;20021;-74
2022/08/07 06:06:01;;;;;;;23.38;20.52;;;15.60;76.30;;;;;;5066340;28;20032;-74
2022/08/07 06:08:27;;;;;;;23.60;20.45;;;15.60;76.00;;;;;;5064122;28;20498;-76
2022/08/07 06:10:53;;;;;;;23.88;19.92;;;15.70;75.90;;;;;;5067027;28;20056;-75
2022/08/07 06:13:19;;;;;;;23.85;20.90;;;15.80;75.80;;;;;;5062278;28;20032;-75
2022/08/07 06:15:47;;;;;;;25.35;19.70;;;15.80;75.70;;;;;;5065370;28;20029;-74
2022/08/07 06:18:13;;;;;;;23.08;20.48;;;15.90;75.40;;;;;;5076459;28;20040;-75
2022/08/07 06:20:40;;;;;;;22.45;19.85;;;16.00;75.50;;;;;;5066807;28;20063;-75
2022/08/07 06:23:07;;;;;;;23.20;20.30;;;16.10;75.20;;;;;;5064536;28;20028;-74
2022/08/07 06:25:35;;;;;;;23.65;19.63;;;16.10;75.20;;;;;;5069717;28;20029;-75
2022/08/07 06:28:06;;;;;;;21.77;19.45;;;16.20;74.90;;;;;;5063584;28;20056;-77
2022/08/07 06:30:32;;;;;;;21.00;18.02;;;16.20;74.80;;;;;;5070337;28;20541;-75
2022/08/07 06:32:58;;;;;;;22.60;19.05;;;16.30;74.50;;;;;;5065820;28;20123;-74
2022/08/07 06:35:23;;;;;;;21.73;17.90;;;16.40;74.50;;;;;;5065672;28;20110;-75
2022/08/07 06:37:49;;;;;;;22.05;19.65;;;16.60;74.00;;;;;;5065057;28;20207;-75
2022/08/07 06:40:15;;;;;;;22.08;19.75;;;16.80;73.90;;;;;;5069454;28;20124;-76
2022/08/07 06:42:42;;;;;;;21.10;18.77;;;17.00;74.00;;;;;;5069984;28;20120;-77
2022/08/07 06:45:14;;;;;;;22.85;20.45;;;17.10;72.60;;;;;;5064520;28;20032;-75
2022/08/07 06:47:41;;;;;;;22.52;20.13;;;17.20;72.50;;;;;;5066901;28;20057;-77
2022/08/07 06:50:07;;;;;;;24.50;20.85;;;17.40;72.50;;;;;;5067747;28;20123;-76
2022/08/07 06:52:35;;;;;;;31.08;24.30;;;17.50;71.90;;;;;;5064722;28;20056;-76
2022/08/07 06:55:09;;;;;;;29.00;21.55;;;17.60;71.80;;;;;;5063869;28;20029;-74
2022/08/07 06:57:37;;;;;;;22.48;18.67;;;17.80;71.20;;;;;;5065376;28;20033;-76
2022/08/07 07:00:04;;;;;;;24.13;17.45;;;17.80;70.70;;;;;;5068746;28;20032;-73
2022/08/07 07:02:31;;;;;;;19.35;15.95;;;18.00;70.20;;;;;;5061639;28;20024;-74
2022/08/07 07:04:57;;;;;;;21.77;17.05;;;18.10;69.60;;;;;;5059476;28;20033;-75
2022/08/07 07:07:23;;;;;;;19.30;14.63;;;18.20;69.10;;;;;;5061182;28;20513;-76
2022/08/07 07:09:49;;;;;;;20.63;14.63;;;18.30;67.30;;;;;;5062692;28;20063;-74
2022/08/07 07:12:25;;;;;;;15.93;13.05;;;18.50;67.40;;;;;;5064682;28;20124;-75
2022/08/07 07:14:59;;;;;;;16.33;12.80;;;18.40;67.20;;;;;;5067410;28;20047;-76
2022/08/07 07:17:38;;;;;;;15.57;11.23;;;18.60;66.30;;;;;;5066314;28;20100;-76
2022/08/07 07:20:19;;;;;;;15.90;11.48;;;18.80;65.00;;;;;;5062194;28;20029;-75
2022/08/07 07:22:47;;;;;;;17.10;12.43;;;19.00;64.90;;;;;;5060581;28;20462;-75
2022/08/07 07:25:14;;;;;;;14.65;11.05;;;19.20;63.10;;;;;;5065477;28;20120;-76
2022/08/07 07:27:48;;;;;;;16.30;11.93;;;19.30;62.90;;;;;;5063257;28;20071;-76
2022/08/07 07:30:14;;;;;;;;;;;19.40;61.50;;;;;;5062464;28;20060;-74
2022/08/07 07:32:41;;;;;;;13.73;10.85;;;19.20;60.70;;;;;;5061111;28;20277;-75
2022/08/07 07:35:10;;;;;;;13.88;10.75;;;19.30;60.90;;;;;;5062884;28;20388;-75
2022/08/07 07:37:40;;;;;;;13.52;9.75;;;19.50;60.60;;;;;;5063816;28;20029;-75
2022/08/07 07:40:11;;;;;;;10.65;8.52;;;19.50;60.30;;;;;;5062520;28;20024;-75
2022/08/07 07:42:37;;;;;;;13.65;9.30;;;19.80;58.70;;;;;;5064739;28;20468;-74
2022/08/07 07:45:05;;;;;;;12.82;7.00;;;19.80;57.40;;;;;;5066997;28;20040;-71
2022/08/07 07:47:35;;;;;;;11.98;7.05;;;20.00;57.50;;;;;;5059334;28;20541;-74
2022/08/07 07:50:02;;;;;;;9.65;6.55;;;20.10;56.60;;;;;;5062526;28;20142;-76
2022/08/07 07:52:29;;;;;;;13.10;6.40;;;20.30;55.80;;;;;;5062036;28;20050;-74
2022/08/07 07:54:56;;;;;;;9.52;5.57;;;20.50;54.10;;;;;;5069321;28;20486;-75
2022/08/07 07:57:23;;;;;;;8.63;5.75;;;20.30;54.50;;;;;;5065748;28;20044;-75
2022/08/07 07:59:50;;;;;;;11.35;5.35;;;20.60;53.20;;;;;;5066453;28;20077;-76
2022/08/07 08:02:19;;;;;;;8.90;4.88;;;20.80;53.70;;;;;;5064349;28;20170;-75
2022/08/07 08:04:46;;;;;;;9.25;5.18;;;20.90;52.50;;;;;;5061746;28;20113;-74
2022/08/07 08:07:14;;;;;;;8.73;4.95;;;20.50;51.30;;;;;;5060121;28;20352;-75
2022/08/07 08:09:41;;;;;;;10.25;5.50;;;20.40;50.20;;;;;;5062825;28;20041;-74
2022/08/07 08:12:07;;;;;;;9.70;6.13;;;20.60;51.50;;;;;;5063575;28;20123;-73
2022/08/07 08:14:35;;;;;;;11.18;6.40;;;20.70;51.50;;;;;;5063603;28;20040;-73
2022/08/07 08:17:01;;;;;;;9.80;6.43;;;20.90;51.90;;;;;;5072644;28;20036;-75
2022/08/07 08:19:29;;;;;;;10.82;7.25;;;20.70;51.40;;;;;;5064008;28;20097;-74
2022/08/07 08:27:32;;;;;;;11.45;6.15;;;20.80;52.40;;;;;;5067144;28;20066;-75
2022/08/07 08:30:03;;;;;;;10.07;7.43;;;21.20;51.60;;;;;;5064788;28;20037;-77
2022/08/07 08:32:32;;;;;;;10.77;6.63;;;20.90;50.80;;;;;;5065044;28;20033;-77
2022/08/07 08:35:00;;;;;;;9.65;5.95;;;21.20;51.50;;;;;;5063103;28;20048;-75
2022/08/07 08:37:29;;;;;;;9.10;6.13;;;21.30;50.30;;;;;;5061810;28;20040;-76
2022/08/07 08:39:56;;;;;;;10.93;6.32;;;21.10;50.70;;;;;;5065265;28;20046;-76
2022/08/07 08:42:25;;;;;;;9.52;5.97;;;21.20;50.20;;;;;;5062973;28;20144;-76
2022/08/07 08:44:57;;;;;;;9.10;5.47;;;21.50;49.40;;;;;;5061754;28;20049;-77
2022/08/07 08:47:43;;;;;;;9.00;5.82;;;21.70;49.10;;;;;;5063781;28;20470;-78
2022/08/07 08:50:23;;;;;;;8.98;5.53;;;21.90;48.00;;;;;;5058354;28;20037;-76
2022/08/07 08:53:04;;;;;;;8.85;5.03;;;21.90;47.50;;;;;;5068625;28;20032;-77
2022/08/07 08:55:40;;;;;;;9.07;4.75;;;21.80;47.70;;;;;;5063770;28;20098;-79
2022/08/07 08:58:21;;;;;;;8.75;4.88;;;21.80;47.80;;;;;;5061843;28;20686;-77
2022/08/07 09:00:52;;;;;;;8.70;5.20;;;21.80;47.30;;;;;;5063362;28;20028;-77
2022/08/07 09:03:34;;;;;;;12.35;5.03;;;22.30;47.40;;;;;;5063283;28;20055;-77
2022/08/07 09:06:10;;;;;;;6.80;4.15;;;22.60;45.80;;;;;;5060808;28;20501;-77
2022/08/07 09:09:01;;;;;;;9.57;5.45;;;22.60;45.50;;;;;;5061474;28;20102;-77
2022/08/07 09:11:39;;;;;;;9.35;5.35;;;22.60;46.00;;;;;;5054533;28;20371;-77
2022/08/07 09:14:31;;;;;;;6.50;3.40;;;22.60;45.60;;;;;;5062937;28;20482;-77
2022/08/07 09:17:28;;;;;;;9.10;4.60;;;22.70;45.60;;;;;;5064572;28;20083;-76
2022/08/07 09:20:04;;;;;;;11.00;4.57;;;22.80;44.30;;;;;;5063604;28;20052;-76
2022/08/07 09:22:39;;;;;;;8.35;3.90;;;22.60;44.50;;;;;;5069074;28;20032;-77
2022/08/07 09:25:14;;;;;;;6.60;2.95;;;22.80;44.60;;;;;;5057306;28;20035;-75
2022/08/07 09:27:56;;;;;;;7.75;3.45;;;22.90;41.70;;;;;;5061979;28;20455;-76
2022/08/07 09:30:26;;;;;;;8.18;4.05;;;22.80;42.40;;;;;;5061906;28;20029;-76
2022/08/07 09:33:18;;;;;;;7.35;4.10;;;22.60;43.30;;;;;;5063016;28;20047;-76
2022/08/07 09:35:55;;;;;;;7.38;3.90;;;22.70;43.00;;;;;;5068480;28;20027;-75
2022/08/07 09:38:28;;;;;;;7.63;3.45;;;22.90;43.70;;;;;;5061833;28;20136;-75
2022/08/07 09:41:04;;;;;;;7.70;3.85;;;22.80;41.60;;;;;;5054829;28;20021;-76
2022/08/07 09:44:01;;;;;;;6.40;3.60;;;22.90;42.60;;;;;;5043606;28;20028;-76
2022/08/07 09:46:44;;;;;;;7.43;3.53;;;22.80;42.90;;;;;;5032598;28;20407;-77
2022/08/07 09:49:48;;;;;;;7.88;3.08;;;23.20;42.70;;;;;;5035618;28;20403;-77
2022/08/07 09:52:29;;;;;;;6.80;3.63;;;23.40;40.40;;;;;;4983695;28;20521;-78
2022/08/07 09:55:09;;;;;;;5.95;2.50;;;23.30;41.40;;;;;;5044927;28;20066;-76
2022/08/07 09:58:01;;;;;;;5.82;2.20;;;23.50;39.30;;;;;;5041964;28;20416;-78
2022/08/07 10:00:38;;;;;;;4.45;2.00;;;23.50;39.20;;;;;;5042215;28;20028;-76
2022/08/07 10:03:39;;;;;;;4.68;2.20;;;23.60;37.90;;;;;;5043659;28;20134;-75
2022/08/07 10:06:44;;;;;;;7.55;3.35;;;24.00;39.10;;;;;;5039502;28;20032;-76
2022/08/07 10:09:10;;;;;;;6.78;2.95;;;24.10;39.90;;;;;;5001782;28;20036;-78
2022/08/07 10:12:09;;;;;;;5.82;2.83;;;24.10;39.70;;;;;;5040062;28;20040;-78
2022/08/07 10:14:45;;;;;;;5.20;2.78;;;23.80;39.70;;;;;;5039833;28;20047;-77
2022/08/07 10:17:51;;;;;;;4.47;2.40;;;23.60;39.30;;;;;;5041163;28;20115;-78
2022/08/07 10:20:38;;;;;;;5.25;2.65;;;23.90;39.00;;;;;;5010422;28;20290;-78
2022/08/07 10:23:09;;;;;;;3.83;1.83;;;24.10;38.10;;;;;;5044402;28;20036;-77
2022/08/07 10:26:01;;;;;;;3.95;1.98;;;24.20;36.60;;;;;;5041155;28;20418;-77
2022/08/07 10:28:59;;;;;;;4.00;1.88;;;24.30;37.60;;;;;;5049201;28;20064;-77
2022/08/07 10:31:50;;;;;;;3.63;1.80;;;24.30;36.90;;;;;;5037377;28;20033;-76
2022/08/07 10:34:29;;;;;;;3.03;1.45;;;24.20;37.20;;;;;;5047290;28;20589;-76
2022/08/07 10:37:12;;;;;;;4.13;1.70;;;24.50;36.00;;;;;;5044891;28;20054;-77
2022/08/07 10:39:53;;;;;;;4.57;1.80;;;24.30;35.70;;;;;;5052042;28;20644;-78
2022/08/07 10:42:31;;;;;;;4.60;1.83;;;24.40;35.70;;;;;;5035775;28;20032;-74
2022/08/07 10:45:10;;;;;;;4.22;1.50;;;24.30;36.40;;;;;;5052700;28;20753;-74
2022/08/07 10:48:00;;;;;;;3.55;1.70;;;24.50;36.70;;;;;;5041057;28;20542;-74
2022/08/07 10:50:41;;;;;;;3.65;1.70;;;24.60;36.00;;;;;;5045421;28;20029;-74
2022/08/07 10:53:13;;;;;;;4.22;1.58;;;24.60;36.60;;;;;;5041149;28;20080;-74
2022/08/07 10:55:54;;;;;;;4.97;1.65;;;24.60;36.20;;;;;;5038570;28;20935;-73
2022/08/07 10:58:39;;;;;;;4.05;1.60;;;24.50;36.50;;;;;;5039715;28;20075;-74
2022/08/07 11:01:30;;;;;;;4.15;1.67;;;24.40;36.50;;;;;;5028517;28;20487;-74
2022/08/07 11:04:07;;;;;;;3.83;1.50;;;24.60;36.80;;;;;;5028503;28;20087;-74
2022/08/07 11:06:40;;;;;;;4.50;2.00;;;24.80;36.10;;;;;;5046279;28;20539;-75
2022/08/07 11:09:17;;;;;;;4.63;2.17;;;24.90;35.20;;;;;;5051036;28;20032;-75
2022/08/07 11:12:30;;;;;;;5.68;2.40;;;24.50;36.50;;;;;;5045683;28;20416;-75
2022/08/07 11:15:03;;;;;;;3.47;1.70;;;25.00;36.30;;;;;;4989026;28;20029;-75
2022/08/07 11:17:48;;;;;;;3.08;1.52;;;25.00;36.50;;;;;;4998499;28;20561;-75
2022/08/07 11:20:55;;;;;;;5.32;1.80;;;25.00;37.00;;;;;;5044716;28;20107;-74
2022/08/07 11:23:56;;;;;;;3.83;1.90;;;25.30;36.60;;;;;;4992027;28;20464;-76
2022/08/07 11:26:27;;;;;;;3.25;1.77;;;25.10;37.10;;;;;;5064580;28;20028;-76
2022/08/07 11:29:20;;;;;;;5.03;1.40;;;25.30;36.50;;;;;;5063041;28;20436;-76
2022/08/07 11:31:50;;;;;;;5.07;1.30;;;24.90;37.00;;;;;;5062242;28;20043;-76
2022/08/07 11:34:43;;;;;;;2.90;1.38;;;25.10;37.30;;;;;;5064046;28;20048;-76
2022/08/07 11:37:40;;;;;;;2.55;1.40;;;25.20;36.90;;;;;;5062722;28;20052;-75
2022/08/07 11:40:24;;;;;;;3.60;1.35;;;25.00;36.80;;;;;;5062974;28;20559;-75
2022/08/07 11:43:16;;;;;;;4.85;1.60;;;25.10;37.20;;;;;;5063190;28;20403;-76
2022/08/07 11:46:26;;;;;;;3.60;1.45;;;25.40;36.80;;;;;;5063657;28;20472;-76
2022/08/07 11:49:36;;;;;;;3.90;1.60;;;25.80;36.60;;;;;;5058715;28;20044;-75
2022/08/07 11:52:38;;;;;;;2.72;1.40;;;25.70;36.70;;;;;;5012282;28;20044;-76
2022/08/07 11:55:30;;;;;;;3.63;1.45;;;25.50;37.40;;;;;;5029938;28;20123;-76
2022/08/07 11:58:13;;;;;;;4.38;1.50;;;25.70;37.30;;;;;;5051961;28;20047;-75
2022/08/07 12:01:00;;;;;;;5.65;1.50;;;25.80;36.70;;;;;;5063374;28;20037;-75
2022/08/07 12:03:37;;;;;;;2.80;1.40;;;25.70;37.20;;;;;;5065340;28;20037;-75
2022/08/07 12:06:14;;;;;;;3.85;1.67;;;25.60;38.30;;;;;;5065518;28;20518;-76
2022/08/07 12:08:51;;;;;;;3.28;1.40;;;25.20;38.10;;;;;;5061429;28;20408;-75
2022/08/07 12:11:52;;;;;;;6.32;1.70;;;25.30;38.10;;;;;;5062678;28;20147;-75
2022/08/07 12:14:20;;;;;;;4.70;1.80;;;25.90;37.40;;;;;;5040440;28;20037;-75
2022/08/07 12:16:52;;;;;;;4.68;1.70;;;26.00;37.50;;;;;;5067170;28;20466;-75
2022/08/07 12:19:39;;;;;;;2.95;1.50;;;26.20;38.00;;;;;;5074438;28;20032;-75
2022/08/07 12:22:26;;;;;;;4.53;1.95;;;26.10;36.10;;;;;;5065512;28;20036;-76
2022/08/07 12:28:02;;;;;;;4.40;1.65;;;26.00;36.70;;;;;;5063950;28;20439;-75
2022/08/07 12:30:33;;;;;;;2.65;1.60;;;25.80;36.90;;;;;;5043383;28;21185;-77
2022/08/07 12:33:17;;;;;;;4.05;1.70;;;25.90;36.80;;;;;;5065509;28;20474;-77
2022/08/07 12:35:45;;;;;;;3.25;1.52;;;25.60;37.10;;;;;;5072044;28;20396;-76
2022/08/07 12:38:13;;;;;;;3.63;1.60;;;25.80;37.50;;;;;;5061953;28;20036;-78
2022/08/07 12:40:41;;;;;;;3.70;1.40;;;25.90;36.00;;;;;;5061144;28;20066;-78
2022/08/07 12:43:09;;;;;;;4.00;1.50;;;25.90;35.30;;;;;;5061851;28;20039;-79
2022/08/07 12:45:57;;;;;;;3.33;1.50;;;25.90;35.50;;;;;;5059904;28;20176;-77
2022/08/07 12:48:45;;;;;;;4.47;1.52;;;26.00;35.10;;;;;;5063809;28;20102;-76
2022/08/07 12:51:15;;;;;;;4.18;1.95;;;26.10;35.70;;;;;;5060978;28;20485;-77
2022/08/07 12:54:03;;;;;;;4.13;1.73;;;26.50;36.20;;;;;;5061803;28;20033;-76
2022/08/07 12:56:43;;;;;;;3.53;1.70;;;26.20;35.50;;;;;;5056331;28;20510;-77
2022/08/07 12:59:15;;;;;;;3.55;1.70;;;25.90;35.70;;;;;;5068581;28;20051;-77
2022/08/07 13:02:03;;;;;;;5.00;1.90;;;26.00;36.40;;;;;;5061131;28;20041;-76
2022/08/07 13:04:48;;;;;;;5.35;1.73;;;26.00;37.50;;;;;;5059699;28;20495;-77
2022/08/07 13:07:50;;;;;;;2.55;1.60;;;25.80;37.90;;;;;;5061618;28;20033;-77
2022/08/07 13:10:31;;;;;;;3.33;1.42;;;26.00;38.30;;;;;;5061007;28;20476;-76
2022/08/07 13:13:14;;;;;;;4.53;1.90;;;26.20;36.10;;;;;;5061612;28;20167;-77
2022/08/07 13:15:58;;;;;;;3.40;1.50;;;26.20;36.10;;;;;;5058036;28;20387;-78
2022/08/07 13:18:37;;;;;;;3.67;1.80;;;26.10;33.70;;;;;;5060682;28;20091;-75